Time;durP1;ratioP1;P1;durP2;ratioP2;P2;SDS_P1;SDS_P2;PMS_P1;PMS_P2;Temp;Humidity;BMP_temperature;BMP_pressure;BME280_temperature;BME280_humidity;BME280_pressure;Samples;Min_cycle;Max_cycle;Signal;HPM_P1;HPM_P2
2023/09/26 00:02:30;;;;;;;12.65;7.25;;;;;;;14.28;100.00;102132.34;10442061;28;20029;-66
2023/09/26 00:07:31;;;;;;;9.55;5.45;;;;;;;14.28;100.00;102133.19;10459395;28;20052;-66
2023/09/26 00:12:32;;;;;;;14.50;6.97;;;;;;;14.35;100.00;102147.72;10459748;28;20049;-66
2023/09/26 00:17:32;;;;;;;10.65;6.18;;;;;;;14.37;100.00;102150.28;10459537;28;20087;-65
2023/09/26 00:22:33;;;;;;;15.35;7.70;;;;;;;14.38;100.00;102149.22;10458614;28;20067;-67
2023/09/26 00:27:33;;;;;;;6.97;5.50;;;;;;;14.40;100.00;102149.91;10440614;28;20488;-66
2023/09/26 00:32:33;;;;;;;7.03;5.97;;;;;;;14.42;100.00;102150.53;10459679;28;20049;-66
2023/09/26 00:37:34;;;;;;;8.75;6.40;;;;;;;14.37;100.00;102151.13;10458878;28;20446;-66
2023/09/26 00:42:34;;;;;;;12.70;6.53;;;;;;;14.35;100.00;102149.63;10458145;28;20128;-67
2023/09/26 00:47:35;;;;;;;6.38;5.78;;;;;;;14.33;100.00;102148.97;10458022;28;20067;-66
2023/09/26 00:52:35;;;;;;;7.32;6.28;;;;;;;14.32;100.00;102136.38;10423398;28;20045;-66
2023/09/26 00:57:36;;;;;;;12.85;6.88;;;;;;;14.29;100.00;102136.75;10438831;28;20040;-66
2023/09/26 01:02:36;;;;;;;18.80;6.18;;;;;;;14.27;100.00;102142.41;10423278;28;20042;-67
2023/09/26 01:07:37;;;;;;;8.82;5.43;;;;;;;14.21;100.00;102148.63;10455720;28;20068;-67
2023/09/26 01:12:38;;;;;;;6.38;5.47;;;;;;;14.13;100.00;102157.72;10439350;28;20358;-66
2023/09/26 01:17:39;;;;;;;12.55;6.80;;;;;;;14.06;100.00;102148.63;10438987;28;20040;-66
2023/09/26 01:22:40;;;;;;;7.43;6.68;;;;;;;14.05;100.00;102146.97;10456443;28;20379;-66
2023/09/26 01:27:41;;;;;;;6.20;5.60;;;;;;;13.98;100.00;102140.59;10439055;28;20334;-66
2023/09/26 01:32:41;;;;;;;13.55;5.95;;;;;;;13.95;100.00;102135.53;10456173;28;20073;-67
2023/09/26 01:37:43;;;;;;;8.85;5.15;;;;;;;13.88;100.00;102131.84;10438638;28;20029;-67
2023/09/26 01:42:43;;;;;;;9.52;6.28;;;;;;;13.80;100.00;102111.03;10454025;28;20033;-67
2023/09/26 01:47:48;;;;;;;10.57;6.93;;;;;;;13.75;100.00;102112.63;10454946;28;20033;-67
2023/09/26 01:52:49;;;;;;;9.65;6.32;;;;;;;13.66;100.00;102110.00;10455294;28;20040;-66
2023/09/26 01:57:50;;;;;;;6.95;5.88;;;;;;;13.55;100.00;102099.56;10456387;28;20358;-67
2023/09/26 02:02:50;;;;;;;10.00;7.20;;;;;;;13.58;100.00;102099.19;10454285;28;20033;-67
2023/09/26 02:07:51;;;;;;;12.48;7.57;;;;;;;13.59;100.00;102100.03;10437561;28;20069;-66
2023/09/26 02:12:51;;;;;;;14.85;8.70;;;;;;;13.64;100.00;102094.88;10436190;28;20036;-67
2023/09/26 02:17:52;;;;;;;8.27;7.50;;;;;;;13.68;100.00;102096.19;10454650;28;20036;-67
2023/09/26 02:22:52;;;;;;;12.80;8.40;;;;;;;13.58;100.00;102099.19;10455441;28;20449;-68
2023/09/26 02:27:53;;;;;;;15.52;7.95;;;;;;;13.54;100.00;102099.78;10454391;28;20486;-67
2023/09/26 02:32:53;;;;;;;14.15;8.93;;;;;;;13.47;100.00;102094.25;10457801;28;20056;-68
2023/09/26 02:37:54;;;;;;;12.80;8.68;;;;;;;13.45;100.00;102096.28;10453830;28;20116;-66
2023/09/26 02:42:54;;;;;;;8.35;7.45;;;;;;;13.41;100.00;102079.50;10454929;28;20064;-68
2023/09/26 02:47:54;;;;;;;11.98;8.63;;;;;;;13.44;100.00;102091.91;10454263;28;20052;-66
2023/09/26 02:52:55;;;;;;;19.70;9.60;;;;;;;13.44;100.00;102089.19;10453364;28;20460;-67
2023/09/26 02:57:55;;;;;;;9.00;7.30;;;;;;;13.44;100.00;102089.19;10462328;28;20048;-66
2023/09/26 03:02:56;;;;;;;14.68;9.77;;;;;;;13.45;100.00;102075.38;10445860;28;20469;-66
2023/09/26 03:07:56;;;;;;;15.13;10.10;;;;;;;13.48;100.00;102071.44;10444175;28;20033;-66
2023/09/26 03:12:56;;;;;;;12.13;10.82;;;;;;;13.49;100.00;102070.38;10443844;28;20060;-67
2023/09/26 03:17:57;;;;;;;13.85;10.43;;;;;;;13.50;100.00;102072.09;10463537;28;20325;-66
2023/09/26 03:22:57;;;;;;;13.48;9.35;;;;;;;13.48;100.00;102057.81;10465846;28;20037;-67
2023/09/26 03:28:01;;;;;;;12.27;10.13;;;;;;;13.55;100.00;102053.31;10427732;28;20029;-66
2023/09/26 03:33:01;;;;;;;16.15;12.80;;;;;;;13.60;100.00;102056.31;10476962;28;20057;-68
2023/09/26 03:38:02;;;;;;;14.10;10.88;;;;;;;13.67;100.00;102048.25;10461109;28;20071;-68
2023/09/26 03:43:02;;;;;;;22.15;12.50;;;;;;;13.65;100.00;102047.56;10442545;28;20366;-66
2023/09/26 03:48:03;;;;;;;20.75;11.93;;;;;;;13.63;100.00;102044.22;10460089;28;20471;-67
2023/09/26 03:53:03;;;;;;;28.65;14.90;;;;;;;13.66;100.00;102043.84;10459887;28;20033;-67
2023/09/26 03:58:04;;;;;;;13.40;11.95;;;;;;;13.73;100.00;102034.72;10459576;28;20080;-67
2023/09/26 04:03:05;;;;;;;22.95;15.23;;;;;;;13.77;100.00;102026.16;10474651;28;20480;-66
2023/09/26 04:08:05;;;;;;;18.05;15.32;;;;;;;13.73;100.00;102018.38;10458858;28;20127;-66
2023/09/26 04:13:06;;;;;;;22.42;14.85;;;;;;;13.77;100.00;102026.16;10459310;28;20029;-67
2023/09/26 04:18:06;;;;;;;18.27;13.48;;;;;;;13.85;100.00;102037.78;10441671;28;20450;-68
2023/09/26 04:23:07;;;;;;;23.27;17.33;;;;;;;13.90;100.00;102029.03;10458823;28;20203;-66
2023/09/26 04:28:07;;;;;;;22.08;15.93;;;;;;;13.96;100.00;102029.09;10459234;28;20056;-67
2023/09/26 04:33:08;;;;;;;21.55;16.20;;;;;;;14.00;100.00;102020.56;10440607;28;20056;-67
2023/09/26 04:38:09;;;;;;;22.05;16.38;;;;;;;14.00;100.00;102024.13;10459312;28;20425;-66
2023/09/26 04:43:10;;;;;;;19.77;16.73;;;;;;;14.05;100.00;102018.94;10474394;28;20029;-69
2023/09/26 04:48:10;;;;;;;17.83;15.95;;;;;;;14.09;100.00;102016.69;10424197;28;20033;-67
2023/09/26 04:53:11;;;;;;;17.98;14.45;;;;;;;14.08;100.00;102013.13;10458536;28;20111;-67
2023/09/26 04:58:12;;;;;;;22.08;16.55;;;;;;;14.04;100.00;102020.00;10459956;28;20043;-66
2023/09/26 05:03:12;;;;;;;26.98;18.77;;;;;;;14.08;100.00;102006.81;10458422;28;20042;-65
2023/09/26 05:08:13;;;;;;;22.65;15.38;;;;;;;14.18;100.00;102005.47;10422133;28;20489;-66
2023/09/26 05:13:14;;;;;;;21.13;16.80;;;;;;;14.19;100.00;101993.50;10454874;28;20060;-66
2023/09/26 05:18:15;;;;;;;18.15;15.65;;;;;;;14.16;100.00;101999.34;10455892;28;20492;-65
2023/09/26 05:23:16;;;;;;;31.63;17.13;;;;;;;14.08;100.00;102010.38;10457324;28;20045;-67
2023/09/26 05:28:16;;;;;;;27.20;17.23;;;;;;;13.96;100.00;102011.94;10471092;28;20542;-67
2023/09/26 05:33:17;;;;;;;24.23;16.50;;;;;;;13.91;100.00;102014.38;10438484;28;20163;-66
2023/09/26 05:38:17;;;;;;;25.13;17.33;;;;;;;13.80;100.00;102023.91;10455185;28;20055;-66
2023/09/26 05:43:17;;;;;;;25.83;19.70;;;;;;;13.90;100.00;102024.44;10454149;28;20041;-66
2023/09/26 05:48:21;;;;;;;34.45;19.75;;;;;;;13.99;100.00;102021.59;10454725;28;20490;-66
2023/09/26 05:53:21;;;;;;;25.70;18.45;;;;;;;14.03;100.00;102023.72;10438249;28;20091;-66
2023/09/26 05:58:22;;;;;;;22.48;17.38;;;;;;;14.05;100.00;102023.56;10455742;28;20183;-67
2023/09/26 06:03:22;;;;;;;21.73;16.60;;;;;;;14.04;100.00;102010.94;10436989;28;20025;-67
2023/09/26 06:08:23;;;;;;;25.35;17.48;;;;;;;14.17;100.00;102016.56;10420186;28;20044;-65
2023/09/26 06:13:23;;;;;;;22.65;19.00;;;;;;;14.23;100.00;102007.63;10454350;28;20033;-66
2023/09/26 06:18:25;;;;;;;23.30;19.58;;;;;;;14.27;100.00;101994.44;10454298;28;20079;-67
2023/09/26 06:23:27;;;;;;;23.30;18.40;;;;;;;14.33;100.00;101993.66;10453936;28;20491;-66
2023/09/26 06:28:28;;;;;;;30.10;20.88;;;;;;;14.46;100.00;101998.38;10454778;28;20037;-67
2023/09/26 06:33:28;;;;;;;28.30;18.65;;;;;;;14.78;100.00;101994.28;10454429;28;20061;-67
2023/09/26 06:38:29;;;;;;;27.85;20.23;;;;;;;14.89;100.00;101986.38;10453553;28;20112;-67
2023/09/26 06:43:29;;;;;;;20.15;18.15;;;;;;;15.13;100.00;101986.13;10453832;28;20040;-67
2023/09/26 06:48:30;;;;;;;27.20;20.15;;;;;;;15.48;100.00;101985.03;10435539;28;20056;-65
2023/09/26 06:53:30;;;;;;;25.63;18.63;;;;;;;15.72;100.00;101991.84;10453552;28;20361;-66
2023/09/26 06:58:31;;;;;;;21.00;18.88;;;;;;;16.08;100.00;101989.84;10436402;28;20075;-67
2023/09/26 07:03:32;;;;;;;26.60;18.60;;;;;;;16.39;100.00;101994.72;10453503;28;20090;-67
2023/09/26 07:08:32;;;;;;;22.08;18.00;;;;;;;16.95;100.00;101984.19;10453242;28;20390;-69
2023/09/26 07:13:35;;;;;;;23.38;15.02;;;;;;;17.56;100.00;101990.34;10468231;28;20033;-67
2023/09/26 07:18:37;;;;;;;22.00;17.55;;;;;;;17.54;100.00;101989.69;10454635;28;20469;-68
2023/09/26 07:23:37;;;;;;;18.40;14.93;;;;;;;17.57;100.00;101989.25;10470659;28;20032;-66
2023/09/26 07:28:39;;;;;;;18.45;13.27;;;;;;;17.78;100.00;101990.91;10451788;28;20067;-67
2023/09/26 07:33:39;;;;;;;20.13;13.60;;;;;;;17.15;100.00;101997.00;10434522;28;20493;-67
2023/09/26 07:38:40;;;;;;;18.02;15.85;;;;;;;17.15;100.00;101997.00;10452113;28;20110;-67
2023/09/26 07:43:40;;;;;;;19.48;14.25;;;;;;;17.34;100.00;102000.72;10440695;28;20059;-68
2023/09/26 07:48:42;;;;;;;17.63;12.90;;;;;;;17.82;100.00;101987.47;10460598;28;20432;-67
2023/09/26 07:53:42;;;;;;;19.35;13.27;;;;;;;18.01;100.00;101977.47;10460797;28;20037;-67
2023/09/26 07:58:43;;;;;;;16.40;13.73;;;;;;;17.73;100.00;101977.81;10458569;28;20029;-67
2023/09/26 08:03:43;;;;;;;19.52;12.65;;;;;;;17.93;100.00;101983.19;10475604;28;20040;-66
2023/09/26 08:08:45;;;;;;;20.95;12.93;;;;;;;18.36;100.00;101983.31;10441433;28;20488;-67
2023/09/26 08:13:45;;;;;;;13.75;11.75;;;;;;;18.33;100.00;101985.69;10457903;28;20124;-67
2023/09/26 08:18:45;;;;;;;16.55;13.27;;;;;;;18.40;100.00;101967.25;10458808;28;20033;-67
2023/09/26 08:23:46;;;;;;;19.02;12.90;;;;;;;19.15;100.00;101978.19;10473375;28;20024;-68
2023/09/26 08:28:46;;;;;;;14.65;11.18;;;;;;;19.90;100.00;101960.53;10424681;28;20025;-67
2023/09/26 08:33:49;;;;;;;18.83;10.77;;;;;;;20.12;100.00;101958.94;10440177;28;20524;-67
2023/09/26 08:38:50;;;;;;;13.02;11.13;;;;;;;20.67;100.00;101972.44;10458600;28;20041;-67
2023/09/26 08:43:50;;;;;;;13.68;11.25;;;;;;;20.30;100.00;101973.69;10423489;28;20461;-67
2023/09/26 08:48:51;;;;;;;15.85;11.85;;;;;;;20.11;100.00;101973.78;10440313;28;20044;-68
2023/09/26 08:53:51;;;;;;;11.68;10.32;;;;;;;19.96;100.00;101976.09;10458507;28;20041;-68
2023/09/26 08:58:53;;;;;;;12.50;9.48;;;;;;;20.06;100.00;101967.28;10459291;28;20109;-67
2023/09/26 09:03:54;;;;;;;10.77;9.20;;;;;;;20.88;100.00;101961.91;10443592;28;20368;-67
2023/09/26 09:09:09;;;;;;;12.38;10.00;;;;;;;22.38;100.00;101948.91;10460097;28;20033;-67
2023/09/26 09:14:10;;;;;;;9.85;8.23;;;;;;;23.41;100.00;101953.97;10476476;28;20433;-66
2023/09/26 09:19:11;;;;;;;10.40;7.95;;;;;;;23.73;100.00;101956.84;10442255;28;20037;-68
2023/09/26 09:24:12;;;;;;;11.20;6.90;;;;;;;23.88;100.00;101962.56;10457019;28;20369;-69
2023/09/26 09:29:19;;;;;;;7.68;6.50;;;;;;;24.34;100.00;101962.97;10455808;28;20040;-67
2023/09/26 09:34:21;;;;;;;11.25;6.75;;;;;;;24.63;100.00;101970.97;10437903;28;20079;-67
2023/09/26 09:39:22;;;;;;;12.02;6.22;;;;;;;24.78;100.00;101945.31;10438070;28;20048;-67
2023/09/26 09:44:23;;;;;;;12.30;5.85;;;;;;;24.86;97.38;101958.69;10421983;28;20033;-67
2023/09/26 09:49:23;;;;;;;7.18;5.72;;;;;;;24.78;90.19;101953.63;10422150;28;20446;-67
2023/09/26 09:54:24;;;;;;;8.43;6.78;;;;;;;25.43;92.62;101955.09;10420493;28;20033;-67
2023/09/26 09:59:24;;;;;;;10.57;5.45;;;;;;;25.81;73.85;101958.56;10421535;28;20033;-67
2023/09/26 10:04:25;;;;;;;9.20;5.43;;;;;;;25.24;72.56;101951.97;10420205;28;20028;-67
2023/09/26 10:09:25;;;;;;;5.50;4.55;;;;;;;24.77;69.10;101944.50;10419843;28;20029;-67
2023/09/26 10:14:28;;;;;;;11.13;5.35;;;;;;;25.28;74.54;101953.09;10421480;28;20361;-67
2023/09/26 10:19:28;;;;;;;4.05;3.28;;;;;;;26.07;68.93;101930.81;10437202;28;20409;-69
2023/09/26 10:24:29;;;;;;;6.57;4.28;;;;;;;26.20;63.35;101931.13;10454240;28;20033;-68
2023/09/26 10:29:30;;;;;;;6.18;4.55;;;;;;;26.08;59.97;101932.50;10454828;28;20041;-68
2023/09/26 10:34:33;;;;;;;4.93;4.20;;;;;;;26.35;61.63;101927.50;10453226;28;20374;-67
2023/09/26 10:39:40;;;;;;;7.13;4.18;;;;;;;27.02;64.67;101911.53;10420503;28;20163;-68
2023/09/26 10:44:42;;;;;;;5.15;4.38;;;;;;;27.18;57.57;101906.75;10437120;28;20095;-67
2023/09/26 10:49:45;;;;;;;4.10;3.17;;;;;;;27.45;61.44;101892.44;10435852;28;20080;-67
2023/09/26 10:54:46;;;;;;;4.18;3.30;;;;;;;27.61;58.22;101900.72;10454822;28;20051;-68
2023/09/26 10:59:46;;;;;;;3.95;3.53;;;;;;;26.24;55.05;101891.69;10437324;28;20056;-68
2023/09/26 11:04:47;;;;;;;4.68;3.72;;;;;;;26.14;56.58;101895.31;10436674;28;20468;-67
2023/09/26 11:09:47;;;;;;;4.55;3.85;;;;;;;26.93;61.93;101885.47;10435868;28;20033;-67
2023/09/26 11:14:48;;;;;;;7.32;3.83;;;;;;;26.50;52.21;101878.63;10419909;28;20468;-67
2023/09/26 11:19:48;;;;;;;3.38;3.08;;;;;;;25.58;53.07;101890.50;10460503;28;20040;-67
2023/09/26 11:24:49;;;;;;;14.45;4.55;;;;;;;24.91;55.08;101883.06;10460691;28;20052;-68
2023/09/26 11:29:50;;;;;;;8.77;4.47;;;;;;;23.70;59.59;101863.34;10444309;28;20060;-68
2023/09/26 11:34:50;;;;;;;5.35;4.25;;;;;;;23.19;61.88;101869.16;10443321;28;20083;-67
2023/09/26 11:39:52;;;;;;;5.03;3.72;;;;;;;23.29;67.48;101867.59;10442643;28;20441;-68
2023/09/26 11:44:52;;;;;;;8.43;4.03;;;;;;;23.88;64.18;101862.13;10460395;28;20047;-67
2023/09/26 11:49:53;;;;;;;3.78;3.47;;;;;;;24.82;63.96;101861.41;10458941;28;20120;-67
2023/09/26 11:54:53;;;;;;;5.70;3.08;;;;;;;24.59;61.65;101878.47;10441758;28;20041;-67
2023/09/26 11:59:54;;;;;;;17.52;3.33;;;;;;;24.73;62.10;101871.34;10425718;28;20037;-67
2023/09/26 12:04:54;;;;;;;5.30;3.03;;;;;;;25.52;56.82;101863.88;10459771;28;20044;-67
2023/09/26 12:09:54;;;;;;;2.42;2.28;;;;;;;26.25;53.71;101851.72;10441491;28;20029;-68
2023/09/26 12:15:23;;;;;;;3.00;2.72;;;;;;;25.81;52.69;101857.84;10462159;28;20036;-67
2023/09/26 12:20:28;;;;;;;2.58;2.38;;;;;;;26.29;52.06;101845.31;10458986;28;20487;-67
2023/09/26 12:25:30;;;;;;;2.70;2.45;;;;;;;25.12;53.05;101837.72;10441584;28;20040;-67
2023/09/26 12:30:30;;;;;;;3.03;2.63;;;;;;;24.89;58.96;101840.91;10458531;28;20111;-67
2023/09/26 12:35:30;;;;;;;3.17;2.65;;;;;;;25.10;54.11;101831.59;10440760;28;20081;-67
2023/09/26 12:40:31;;;;;;;3.90;2.63;;;;;;;25.75;52.72;101837.56;10457791;28;20045;-67
2023/09/26 12:45:32;;;;;;;11.20;2.95;;;;;;;25.60;50.89;101837.53;10457971;28;20491;-67
2023/09/26 12:50:33;;;;;;;3.45;2.42;;;;;;;25.97;55.93;101828.97;10457923;28;20077;-68
2023/09/26 12:55:33;;;;;;;5.32;3.08;;;;;;;26.38;49.22;101834.47;10423563;28;20036;-68
2023/09/26 13:00:34;;;;;;;2.33;2.17;;;;;;;25.74;56.63;101833.94;10439676;28;20040;-68
2023/09/26 13:05:35;;;;;;;6.60;3.50;;;;;;;25.42;54.80;101847.22;10457884;28;20048;-69
2023/09/26 13:10:36;;;;;;;3.92;3.05;;;;;;;24.90;55.77;101832.34;10457032;28;20032;-68
2023/09/26 13:15:37;;;;;;;8.65;2.95;;;;;;;25.17;62.55;101832.19;10457856;28;20461;-67
2023/09/26 13:20:38;;;;;;;9.27;2.58;;;;;;;25.05;59.04;101837.13;10439171;28;20057;-68
2023/09/26 13:25:38;;;;;;;4.43;2.00;;;;;;;24.73;60.29;101818.72;10438626;28;20040;-68
2023/09/26 13:30:39;;;;;;;10.43;2.30;;;;;;;24.50;60.79;101827.44;10456296;28;20132;-67
2023/09/26 13:35:41;;;;;;;4.82;2.83;;;;;;;24.34;61.32;101829.25;10456536;28;20041;-69
2023/09/26 13:40:43;;;;;;;3.33;3.05;;;;;;;24.21;60.51;101829.72;10437658;28;20039;-69
2023/09/26 13:45:43;;;;;;;2.88;2.60;;;;;;;24.08;60.16;101825.50;10455378;28;20037;-69
2023/09/26 13:50:44;;;;;;;5.65;3.00;;;;;;;24.11;62.11;101819.44;10437072;28;20389;-69
2023/09/26 13:55:44;;;;;;;5.57;3.10;;;;;;;24.06;63.80;101806.41;10438495;28;20062;-69
2023/09/26 14:00:45;;;;;;;3.65;3.22;;;;;;;23.89;64.72;101795.47;10455686;28;20086;-68
2023/09/26 14:05:45;;;;;;;7.78;2.83;;;;;;;23.70;63.93;101798.91;10438223;28;20033;-67
2023/09/26 14:10:46;;;;;;;3.65;3.17;;;;;;;23.44;61.81;101793.97;10455547;28;20075;-68
2023/09/26 14:15:46;;;;;;;6.35;3.47;;;;;;;23.16;62.54;101772.13;10454945;28;20037;-68
2023/09/26 14:20:50;;;;;;;5.63;2.55;;;;;;;22.99;62.38;101758.41;10437352;28;20041;-68
2023/09/26 14:25:54;;;;;;;3.47;2.33;;;;;;;22.92;61.18;101760.53;10440437;28;20049;-68
2023/09/26 14:30:54;;;;;;;3.17;2.92;;;;;;;23.18;60.62;101759.72;10439576;28;20105;-68
2023/09/26 14:35:54;;;;;;;4.03;3.13;;;;;;;23.47;60.12;101773.25;10455778;28;20365;-67
2023/09/26 14:40:55;;;;;;;12.40;3.53;;;;;;;23.37;60.58;101781.47;10437196;28;20102;-69
2023/09/26 14:45:55;;;;;;;3.35;2.95;;;;;;;23.25;62.93;101780.78;10453136;28;20087;-67
2023/09/26 14:50:57;;;;;;;5.25;3.55;;;;;;;23.03;61.84;101783.59;10438662;28;20086;-68
2023/09/26 14:55:58;;;;;;;6.93;3.40;;;;;;;22.75;64.37;101783.53;10462683;28;20037;-67
2023/09/26 15:00:58;;;;;;;5.30;3.55;;;;;;;22.66;66.59;101776.78;10427567;28;20033;-68
2023/09/26 15:05:59;;;;;;;5.78;3.47;;;;;;;22.41;67.29;101782.81;10462198;28;20491;-67
2023/09/26 15:10:59;;;;;;;3.90;3.60;;;;;;;22.32;69.19;101784.34;10461888;28;20025;-67
2023/09/26 15:16:03;;;;;;;5.35;3.17;;;;;;;22.22;70.10;101759.38;10460623;28;20059;-68
2023/09/26 15:21:03;;;;;;;2.85;2.65;;;;;;;22.17;71.13;101754.59;10461643;28;20037;-66
2023/09/26 15:26:04;;;;;;;4.53;3.28;;;;;;;22.08;72.49;101766.28;10461577;28;20495;-68
2023/09/26 15:31:05;;;;;;;6.22;3.72;;;;;;;22.05;73.63;101765.72;10443350;28;20448;-68
2023/09/26 15:36:05;;;;;;;4.82;4.35;;;;;;;22.00;74.89;101771.16;10444459;28;20036;-67
2023/09/26 15:41:24;;;;;;;6.53;4.15;;;;;;;21.83;76.42;101754.63;10442980;28;20040;-67
2023/09/26 15:46:24;;;;;;;6.63;3.70;;;;;;;21.90;77.09;101748.94;10460531;28;20041;-66
2023/09/26 15:51:25;;;;;;;4.30;3.80;;;;;;;21.84;77.60;101747.19;10426051;28;20060;-68
2023/09/26 15:56:25;;;;;;;4.85;3.65;;;;;;;21.80;79.19;101740.53;10459705;28;20029;-68
2023/09/26 16:01:26;;;;;;;2.70;2.50;;;;;;;21.83;79.99;101742.78;10458645;28;20033;-67
2023/09/26 16:06:28;;;;;;;4.88;3.95;;;;;;;21.77;81.58;101754.81;10458115;28;20114;-68
2023/09/26 16:11:28;;;;;;;6.10;3.40;;;;;;;21.63;82.87;101742.44;10440878;28;20342;-69
2023/09/26 16:16:28;;;;;;;3.88;3.08;;;;;;;21.69;82.64;101752.47;10459991;28;20045;-66
2023/09/26 16:21:29;;;;;;;5.70;3.38;;;;;;;21.50;84.91;101746.38;10442238;28;20068;-66
2023/09/26 16:26:29;;;;;;;4.25;3.85;;;;;;;21.42;85.81;101753.13;10457815;28;20029;-67
2023/09/26 16:31:30;;;;;;;4.88;3.88;;;;;;;21.36;86.01;101748.63;10457545;28;20192;-67
2023/09/26 16:36:30;;;;;;;3.40;3.10;;;;;;;21.30;86.79;101760.59;10459045;28;20037;-67
2023/09/26 16:41:30;;;;;;;4.78;3.30;;;;;;;21.23;87.52;101760.75;10459644;28;20440;-69
2023/09/26 16:46:31;;;;;;;4.38;3.60;;;;;;;21.14;89.56;101763.06;10458247;28;20138;-67
2023/09/26 16:51:31;;;;;;;3.90;3.42;;;;;;;21.13;88.92;101771.59;10441102;28;20510;-70
2023/09/26 16:56:33;;;;;;;4.25;3.58;;;;;;;21.01;88.97;101774.41;10458039;28;20037;-70
2023/09/26 17:01:33;;;;;;;7.55;4.38;;;;;;;20.85;89.47;101781.53;10439628;28;20361;-68
2023/09/26 17:06:34;;;;;;;3.45;3.25;;;;;;;20.67;90.56;101774.25;10439752;28;20041;-68
2023/09/26 17:11:34;;;;;;;6.22;4.43;;;;;;;20.52;92.18;101773.97;10441174;28;20131;-68
2023/09/26 17:16:34;;;;;;;4.75;4.35;;;;;;;20.37;92.47;101768.94;10458377;28;20037;-70
2023/09/26 17:21:35;;;;;;;4.65;4.00;;;;;;;20.21;93.29;101797.16;10456601;28;20573;-67
2023/09/26 17:26:36;;;;;;;14.60;3.75;;;;;;;20.05;93.25;101792.41;10422516;28;20037;-67
2023/09/26 17:31:36;;;;;;;5.50;4.45;;;;;;;19.88;93.56;101795.03;10456967;28;20111;-68
2023/09/26 17:36:37;;;;;;;7.10;4.45;;;;;;;19.71;93.84;101814.94;10421942;28;20149;-67
2023/09/26 17:41:40;;;;;;;5.85;4.05;;;;;;;19.53;94.05;101826.00;10439845;28;20025;-68
2023/09/26 17:46:42;;;;;;;4.55;3.58;;;;;;;19.36;94.60;101825.81;10438411;28;20033;-67
2023/09/26 17:51:42;;;;;;;5.88;4.47;;;;;;;19.28;95.12;101821.50;10457386;28;20064;-68
2023/09/26 17:56:43;;;;;;;5.03;4.57;;;;;;;19.20;96.12;101824.53;10457869;28;20507;-68
2023/09/26 18:01:43;;;;;;;6.32;4.25;;;;;;;19.17;96.16;101825.00;10444694;28;20067;-69
2023/09/26 18:06:43;;;;;;;8.15;5.20;;;;;;;19.10;96.96;101818.78;10457588;28;20388;-67
2023/09/26 18:11:44;;;;;;;4.75;4.00;;;;;;;18.99;96.28;101834.13;10454554;28;20051;-68
2023/09/26 18:16:45;;;;;;;4.85;4.40;;;;;;;18.85;96.67;101837.25;10438699;28;20056;-67
2023/09/26 18:21:45;;;;;;;5.50;4.97;;;;;;;18.72;97.33;101833.59;10453958;28;20192;-68
2023/09/26 18:26:46;;;;;;;11.90;5.05;;;;;;;18.55;97.72;101838.00;10437630;28;20361;-68
2023/09/26 18:31:46;;;;;;;8.88;6.22;;;;;;;18.46;98.72;101834.72;10436589;28;20056;-68
2023/09/26 18:36:46;;;;;;;9.20;6.18;;;;;;;18.35;99.23;101835.47;10437025;28;20032;-67
2023/09/26 18:41:47;;;;;;;6.43;5.78;;;;;;;18.23;99.74;101840.88;10437262;28;20112;-67
2023/09/26 18:46:47;;;;;;;6.70;5.03;;;;;;;18.13;100.00;101841.38;10435806;28;20119;-67
2023/09/26 18:51:49;;;;;;;5.22;4.72;;;;;;;18.04;100.00;101841.88;10436490;28;20030;-66
2023/09/26 18:56:50;;;;;;;5.10;4.63;;;;;;;18.01;100.00;101825.88;10454572;28;20033;-67
2023/09/26 19:01:51;;;;;;;4.53;4.13;;;;;;;18.03;100.00;101821.03;10454714;28;20029;-69
2023/09/26 19:06:51;;;;;;;5.22;4.18;;;;;;;18.07;100.00;101817.59;10454314;28;20086;-68
2023/09/26 19:11:54;;;;;;;4.20;3.90;;;;;;;18.09;100.00;101831.94;10437125;28;20069;-68
2023/09/26 19:16:55;;;;;;;14.20;9.95;;;;;;;18.08;100.00;101832.97;10455220;28;20037;-68
2023/09/26 19:21:55;;;;;;;20.45;7.28;;;;;;;18.04;100.00;101830.91;10437424;28;20029;-68
2023/09/26 19:26:56;;;;;;;8.50;5.85;;;;;;;17.99;100.00;101828.00;10422020;28;20526;-68
2023/09/26 19:31:58;;;;;;;6.53;5.63;;;;;;;17.94;100.00;101819.63;10436485;28;20061;-67
2023/09/26 19:36:58;;;;;;;6.70;5.82;;;;;;;17.95;100.00;101832.25;10456476;28;20033;-67
2023/09/26 19:41:59;;;;;;;5.82;4.93;;;;;;;17.91;100.00;101850.22;10462422;28;20037;-68
2023/09/26 19:46:59;;;;;;;11.73;6.22;;;;;;;17.88;100.00;101860.56;10460629;28;20036;-70
2023/09/26 19:51:59;;;;;;;5.70;5.22;;;;;;;17.84;100.00;101853.00;10445407;28;20061;-67
2023/09/26 19:57:00;;;;;;;7.53;4.78;;;;;;;17.86;100.00;101854.44;10463652;28;20071;-68
2023/09/26 20:02:00;;;;;;;11.02;6.15;;;;;;;17.79;100.00;101852.84;10460106;28;20084;-67
2023/09/26 20:07:03;;;;;;;7.32;4.93;;;;;;;17.78;100.00;101852.00;10461261;28;20147;-68
2023/09/26 20:12:03;;;;;;;7.55;5.45;;;;;;;17.81;100.00;101872.63;10461465;28;20033;-67
2023/09/26 20:17:04;;;;;;;6.63;6.03;;;;;;;17.78;100.00;101856.66;10442293;28;20082;-67
2023/09/26 20:22:05;;;;;;;6.93;5.50;;;;;;;17.77;100.00;101869.50;10460286;28;20044;-66
2023/09/26 20:27:06;;;;;;;6.05;5.15;;;;;;;17.70;100.00;101876.03;10441634;28;20170;-68
2023/09/26 20:32:06;;;;;;;6.80;5.88;;;;;;;17.60;100.00;101876.53;10459382;28;20114;-67
2023/09/26 20:37:07;;;;;;;4.40;4.10;;;;;;;17.54;100.00;101856.34;10441859;28;20461;-68
2023/09/26 20:42:08;;;;;;;7.10;4.78;;;;;;;17.52;100.00;101841.22;10441281;28;20064;-68
2023/09/26 20:47:08;;;;;;;7.30;5.10;;;;;;;17.43;100.00;101835.97;10458946;28;20045;-66
2023/09/26 20:52:09;;;;;;;12.75;5.30;;;;;;;17.36;100.00;101848.88;10439502;28;20457;-68
2023/09/26 20:57:10;;;;;;;6.25;4.70;;;;;;;17.30;100.00;101862.59;10458279;28;20091;-67
2023/09/26 21:02:10;;;;;;;7.55;4.68;;;;;;;17.22;100.00;101865.59;10441294;28;20056;-67
2023/09/26 21:07:11;;;;;;;5.80;4.40;;;;;;;17.12;100.00;101882.47;10439622;28;20029;-69
2023/09/26 21:12:12;;;;;;;6.22;4.53;;;;;;;17.06;100.00;101870.50;10457403;28;20035;-66
2023/09/26 21:17:13;;;;;;;10.70;6.05;;;;;;;16.98;100.00;101878.97;10457626;28;20045;-66
2023/09/26 21:22:13;;;;;;;9.75;6.00;;;;;;;16.93;100.00;101885.06;10456519;28;20037;-67
2023/09/26 21:27:13;;;;;;;5.22;4.72;;;;;;;16.86;100.00;101886.16;10457728;28;20144;-66
2023/09/26 21:32:14;;;;;;;10.05;5.07;;;;;;;16.82;100.00;101874.81;10438591;28;20049;-66
2023/09/26 21:37:14;;;;;;;10.85;5.57;;;;;;;16.83;100.00;101884.69;10457373;28;20075;-67
2023/09/26 21:42:15;;;;;;;5.80;3.83;;;;;;;16.84;100.00;101885.50;10457202;28;20036;-67
2023/09/26 21:47:15;;;;;;;7.05;4.57;;;;;;;16.85;100.00;101881.75;10456604;28;20116;-66
2023/09/26 21:52:16;;;;;;;6.15;4.07;;;;;;;16.84;100.00;101880.88;10455357;28;20052;-67
2023/09/26 21:57:16;;;;;;;6.32;3.75;;;;;;;16.87;100.00;101865.94;10455452;28;20090;-67
2023/09/26 22:02:16;;;;;;;5.22;4.82;;;;;;;16.81;100.00;101864.06;10458475;28;20048;-65
2023/09/26 22:07:17;;;;;;;10.95;5.70;;;;;;;16.78;100.00;101872.69;10440339;28;20129;-68
2023/09/26 22:12:17;;;;;;;14.38;4.63;;;;;;;16.71;100.00;101861.75;10437335;28;20435;-66
2023/09/26 22:17:18;;;;;;;10.70;4.43;;;;;;;16.68;100.00;101862.16;10455361;28;20150;-66
2023/09/26 22:22:18;;;;;;;12.88;4.35;;;;;;;16.64;100.00;101858.19;10454705;28;20384;-67
2023/09/26 22:27:21;;;;;;;6.10;5.18;;;;;;;16.59;100.00;101879.84;10436852;28;20056;-67
2023/09/26 22:32:22;;;;;;;6.20;5.35;;;;;;;16.54;100.00;101896.91;10454813;28;20096;-67
2023/09/26 22:37:22;;;;;;;7.95;5.68;;;;;;;16.44;100.00;101896.53;10419379;28;20136;-67
2023/09/26 22:42:23;;;;;;;9.05;6.10;;;;;;;16.40;100.00;101896.09;10436438;28;20120;-68